createdAt,value
2023-04-19T00:00:25.202Z,2186.00
2023-04-19T00:01:25.250Z,2175.00
2023-04-19T00:02:25.521Z,2185.00
2023-04-19T00:03:25.637Z,2173.00
2023-04-19T00:04:25.622Z,2172.00
2023-04-19T00:05:25.552Z,2197.00
2023-04-19T00:06:25.503Z,2177.00
2023-04-19T00:07:25.604Z,2173.00
2023-04-19T00:08:25.689Z,2155.00
2023-04-19T00:09:25.715Z,2148.00
2023-04-19T00:10:25.768Z,2145.00
2023-04-19T00:11:25.822Z,2131.00
2023-04-19T00:12:25.832Z,2159.00
2023-04-19T00:13:25.911Z,2147.00
2023-04-19T00:14:25.958Z,2154.00
2023-04-19T00:15:26.014Z,2164.00
2023-04-19T00:16:26.093Z,2172.00
2023-04-19T00:17:26.111Z,2194.00
2023-04-19T00:18:26.172Z,2203.00
2023-04-19T00:19:26.219Z,2214.00
2023-04-19T00:20:26.243Z,2189.00
2023-04-19T00:21:26.279Z,2182.00
2023-04-19T00:22:26.334Z,2202.00
2023-04-19T00:23:26.354Z,2203.00
2023-04-19T00:24:26.422Z,2213.00
2023-04-19T00:25:26.470Z,2199.00
2023-04-19T00:26:26.513Z,2204.00
2023-04-19T00:27:26.538Z,2201.00
2023-04-19T00:28:26.619Z,2206.00
2023-04-19T00:29:26.679Z,2203.00
2023-04-19T00:30:26.765Z,2200.00
2023-04-19T00:31:26.868Z,2205.00
2023-04-19T00:32:26.871Z,2209.00
2023-04-19T00:33:26.908Z,2236.00
2023-04-19T00:34:26.956Z,2221.00
2023-04-19T00:35:27.070Z,2236.00
2023-04-19T00:36:27.110Z,2231.00
2023-04-19T00:37:27.185Z,2233.00
2023-04-19T00:38:27.237Z,2226.00
2023-04-19T00:39:27.277Z,2238.00
2023-04-19T00:40:27.331Z,2254.00
2023-04-19T00:41:27.398Z,2233.00
2023-04-19T00:42:27.476Z,2238.00
2023-04-19T00:43:27.497Z,2256.00
2023-04-19T00:44:27.578Z,2255.00
2023-04-19T00:45:27.550Z,2237.00
2023-04-19T00:46:27.693Z,2253.00
2023-04-19T00:47:27.712Z,2263.00
2023-04-19T00:48:27.731Z,2278.00
2023-04-19T00:49:27.850Z,2260.00
2023-04-19T00:50:27.870Z,2283.00
2023-04-19T00:51:27.926Z,2285.00
2023-04-19T00:52:27.990Z,2300.00
2023-04-19T00:53:28.013Z,2303.00
2023-04-19T00:54:28.072Z,2293.00
2023-04-19T00:55:28.126Z,2282.00
2023-04-19T00:56:28.196Z,2293.00
2023-04-19T00:57:28.202Z,2307.00
2023-04-19T00:58:28.276Z,2310.00
2023-04-19T00:59:28.336Z,2327.00
2023-04-19T01:00:28.465Z,2337.00
2023-04-19T01:01:28.482Z,2334.00
2023-04-19T01:02:28.747Z,2334.00
2023-04-19T01:03:28.691Z,2363.00
2023-04-19T01:04:28.744Z,2391.00
2023-04-19T01:05:28.677Z,2394.00
2023-04-19T01:06:28.733Z,2395.00
2023-04-19T01:07:28.811Z,2401.00
2023-04-19T01:08:28.852Z,2374.00
2023-04-19T01:09:28.882Z,2362.00
2023-04-19T01:10:28.954Z,2333.00
2023-04-19T01:11:28.981Z,2335.00
2023-04-19T01:12:29.012Z,2349.00
2023-04-19T01:13:29.095Z,2344.00
2023-04-19T01:14:29.138Z,2335.00
2023-04-19T01:15:29.245Z,2318.00
2023-04-19T01:16:29.400Z,2321.00
2023-04-19T01:17:29.368Z,2324.00
2023-04-19T01:18:29.443Z,2311.00
2023-04-19T01:19:29.539Z,2305.00
2023-04-19T01:20:29.565Z,2318.00
2023-04-19T01:21:29.670Z,2306.00
2023-04-19T01:22:29.744Z,2292.00
2023-04-19T01:23:29.842Z,2288.00
2023-04-19T01:24:29.870Z,2267.00
2023-04-19T01:25:29.983Z,2280.00
2023-04-19T01:26:30.104Z,2275.00
2023-04-19T01:27:30.082Z,2266.00
2023-04-19T01:28:30.191Z,2259.00
2023-04-19T01:29:30.240Z,2269.00
2023-04-19T01:30:30.313Z,2258.00
2023-04-19T01:31:30.420Z,2256.00
2023-04-19T01:32:30.474Z,2258.00
2023-04-19T01:33:30.543Z,2248.00
2023-04-19T01:34:30.615Z,2260.00
2023-04-19T01:35:30.659Z,2258.00
2023-04-19T01:36:30.718Z,2248.00
2023-04-19T01:37:30.799Z,2245.00
2023-04-19T01:38:30.865Z,2247.00
2023-04-19T01:39:30.924Z,2223.00
2023-04-19T01:40:31.013Z,2238.00
2023-04-19T01:41:31.071Z,2226.00
2023-04-19T01:42:31.205Z,2240.00
2023-04-19T01:43:31.191Z,2231.00
2023-04-19T01:44:31.246Z,2223.00
2023-04-19T01:45:31.272Z,2212.00
2023-04-19T01:46:31.407Z,2220.00
2023-04-19T01:47:31.494Z,2204.00
2023-04-19T01:48:31.478Z,2216.00
2023-04-19T01:49:31.518Z,2208.00
2023-04-19T01:50:31.589Z,2214.00
2023-04-19T01:51:31.678Z,2194.00
2023-04-19T01:52:31.724Z,2214.00
2023-04-19T01:53:31.785Z,2197.00
2023-04-19T01:54:31.867Z,2198.00
2023-04-19T01:55:31.926Z,2170.00
2023-04-19T01:56:31.952Z,2180.00
2023-04-19T01:57:32.009Z,2180.00
2023-04-19T01:58:32.081Z,2172.00
2023-04-19T01:59:32.149Z,2185.00
2023-04-19T02:00:32.225Z,2161.00
2023-04-19T02:01:32.289Z,2168.00
2023-04-19T02:02:32.426Z,2174.00
2023-04-19T02:03:32.475Z,2174.00
2023-04-19T02:04:32.457Z,2173.00
2023-04-19T02:05:32.528Z,2170.00
2023-04-19T02:06:32.584Z,2186.00
2023-04-19T02:07:32.642Z,2182.00
2023-04-19T02:08:32.726Z,2180.00
2023-04-19T02:09:32.760Z,2182.00
2023-04-19T02:10:32.856Z,2182.00
2023-04-19T02:11:32.863Z,2176.00
2023-04-19T02:12:32.962Z,2170.00
2023-04-19T02:13:33.044Z,2178.00
2023-04-19T02:14:33.101Z,2176.00
2023-04-19T02:15:33.107Z,2181.00
2023-04-19T02:16:35.608Z,2186.00
2023-04-19T02:17:33.259Z,2186.00
2023-04-19T02:18:33.192Z,2199.00
2023-04-19T02:19:33.242Z,2184.00
2023-04-19T02:20:33.234Z,2202.00
2023-04-19T02:21:33.265Z,2189.00
2023-04-19T02:22:33.260Z,2206.00
2023-04-19T02:23:33.264Z,2193.00
2023-04-19T02:24:33.284Z,2199.00
2023-04-19T02:25:33.321Z,2190.00
2023-04-19T02:26:33.331Z,2185.00
2023-04-19T02:27:33.324Z,2202.00
2023-04-19T02:28:33.362Z,2201.00
2023-04-19T02:29:33.350Z,2191.00
2023-04-19T02:30:33.391Z,2181.00
2023-04-19T02:31:33.417Z,2179.00
2023-04-19T02:32:33.451Z,2181.00
2023-04-19T02:33:33.400Z,2184.00
2023-04-19T02:34:33.412Z,2190.00
2023-04-19T02:35:33.422Z,2176.00
2023-04-19T02:36:33.435Z,2182.00
2023-04-19T02:37:33.481Z,2180.00
2023-04-19T02:38:33.457Z,2159.00
2023-04-19T02:39:33.469Z,2166.00
2023-04-19T02:40:33.472Z,2158.00
2023-04-19T02:41:33.464Z,2160.00
2023-04-19T02:42:33.508Z,2153.00
2023-04-19T02:43:33.492Z,2143.00
2023-04-19T02:44:33.532Z,2129.00
2023-04-19T02:45:33.515Z,2140.00
2023-04-19T02:46:33.622Z,2144.00
2023-04-19T02:47:33.549Z,2142.00
2023-04-19T02:48:33.558Z,2133.00
2023-04-19T02:49:33.580Z,2134.00
2023-04-19T02:50:33.586Z,2131.00
2023-04-19T02:51:33.581Z,2137.00
2023-04-19T02:52:33.634Z,2127.00
2023-04-19T02:53:33.658Z,2120.00
2023-04-19T02:54:33.645Z,2123.00
2023-04-19T02:55:33.624Z,2110.00
2023-04-19T02:56:33.665Z,2110.00
2023-04-19T02:57:33.670Z,2118.00
2023-04-19T02:58:33.688Z,2117.00
2023-04-19T02:59:33.697Z,2118.00
2023-04-19T03:00:33.708Z,2116.00
2023-04-19T03:01:33.747Z,2103.00
2023-04-19T03:02:33.887Z,2097.00
2023-04-19T03:03:33.850Z,2090.00
2023-04-19T03:04:33.835Z,2080.00
2023-04-19T03:05:33.729Z,2083.00
2023-04-19T03:06:33.753Z,2092.00
2023-04-19T03:07:33.758Z,2087.00
2023-04-19T03:08:33.768Z,2087.00
2023-04-19T03:09:33.823Z,2076.00
2023-04-19T03:10:33.796Z,2087.00
2023-04-19T03:11:33.802Z,2081.00
2023-04-19T03:12:33.846Z,2086.00
2023-04-19T03:13:33.789Z,2083.00
2023-04-19T03:14:33.812Z,2082.00
2023-04-19T03:15:33.838Z,2080.00
2023-04-19T03:16:33.815Z,2078.00
2023-04-19T03:17:33.853Z,2073.00
2023-04-19T03:18:33.831Z,2076.00
2023-04-19T03:19:33.856Z,2077.00
2023-04-19T03:20:33.860Z,2086.00
2023-04-19T03:21:33.879Z,2082.00
2023-04-19T03:22:33.877Z,2069.00
2023-04-19T03:23:33.897Z,2053.00
2023-04-19T03:24:35.006Z,2058.00
2023-04-19T03:25:33.918Z,2069.00
2023-04-19T03:26:33.928Z,2065.00
2023-04-19T03:27:33.981Z,2057.00
2023-04-19T03:28:33.935Z,2064.00
2023-04-19T03:29:33.964Z,2072.00
2023-04-19T03:30:33.989Z,2067.00
2023-04-19T03:31:34.086Z,2063.00
2023-04-19T03:32:34.018Z,2063.00
2023-04-19T03:33:34.000Z,2053.00
2023-04-19T03:34:34.042Z,2050.00
2023-04-19T03:35:34.040Z,2045.00
2023-04-19T03:36:34.047Z,2060.00
2023-04-19T03:37:34.027Z,2055.00
2023-04-19T03:38:34.051Z,2057.00
2023-04-19T03:39:34.050Z,2061.00
2023-04-19T03:40:34.101Z,2041.00
2023-04-19T03:41:34.061Z,2044.00
2023-04-19T03:42:34.088Z,2041.00
2023-04-19T03:43:34.101Z,2041.00
2023-04-19T03:44:34.103Z,2057.00
2023-04-19T03:45:34.167Z,2049.00
2023-04-19T03:46:34.133Z,2044.00
2023-04-19T03:47:34.178Z,2053.00
2023-04-19T03:48:34.145Z,2047.00
2023-04-19T03:49:34.129Z,2051.00
2023-04-19T03:50:34.161Z,2048.00
2023-04-19T03:51:34.158Z,2037.00
2023-04-19T03:52:34.132Z,2036.00
2023-04-19T03:53:34.180Z,2057.00
2023-04-19T03:54:34.180Z,2049.00
2023-04-19T03:55:34.196Z,2061.00
2023-04-19T03:56:34.174Z,2048.00
2023-04-19T03:57:34.205Z,2056.00
2023-04-19T03:58:34.220Z,2044.00
2023-04-19T03:59:34.217Z,2057.00
2023-04-19T04:00:34.240Z,2047.00
2023-04-19T04:01:34.240Z,2041.00
2023-04-19T04:02:34.359Z,2048.00
2023-04-19T04:03:34.547Z,2050.00
2023-04-19T04:04:34.520Z,2052.00
2023-04-19T04:05:34.364Z,2046.00
2023-04-19T04:06:34.245Z,2059.00
2023-04-19T04:07:34.255Z,2045.00
2023-04-19T04:08:34.276Z,2051.00
2023-04-19T04:09:34.268Z,2049.00
2023-04-19T04:10:34.297Z,2048.00
2023-04-19T04:11:34.284Z,2047.00
2023-04-19T04:12:34.289Z,2048.00
2023-04-19T04:13:34.312Z,2050.00
2023-04-19T04:14:34.325Z,2058.00
2023-04-19T04:15:34.315Z,2064.00
2023-04-19T04:16:34.390Z,2053.00
2023-04-19T04:17:34.379Z,2053.00
2023-04-19T04:18:34.359Z,2053.00
2023-04-19T04:19:34.363Z,2047.00
2023-04-19T04:20:34.387Z,2047.00
2023-04-19T04:21:34.364Z,2054.00
2023-04-19T04:22:34.401Z,2050.00
2023-04-19T04:23:35.050Z,2060.00
2023-04-19T04:24:34.370Z,2064.00
2023-04-19T04:25:34.357Z,2061.00
2023-04-19T04:26:34.390Z,2073.00
2023-04-19T04:27:34.388Z,2073.00
2023-04-19T04:28:34.386Z,2070.00
2023-04-19T04:29:34.398Z,2072.00
2023-04-19T04:30:34.387Z,2074.00
2023-04-19T04:31:34.435Z,2070.00
2023-04-19T04:32:34.450Z,2082.00
2023-04-19T04:33:34.395Z,2075.00
2023-04-19T04:34:34.397Z,2083.00
2023-04-19T04:35:34.446Z,2075.00
2023-04-19T04:36:34.420Z,2075.00
2023-04-19T04:37:34.426Z,2078.00
2023-04-19T04:38:34.426Z,2076.00
2023-04-19T04:39:34.401Z,2078.00
2023-04-19T04:40:34.427Z,2089.00
2023-04-19T04:41:34.427Z,2072.00
2023-04-19T04:42:34.433Z,2079.00
2023-04-19T04:43:34.433Z,2087.00
2023-04-19T04:44:34.420Z,2087.00
2023-04-19T04:45:34.430Z,2084.00
2023-04-19T04:46:34.455Z,2087.00
2023-04-19T04:47:34.537Z,2085.00
2023-04-19T04:48:34.461Z,2081.00
2023-04-19T04:49:34.465Z,2081.00
2023-04-19T04:50:34.530Z,2083.00
2023-04-19T04:51:34.536Z,2088.00
2023-04-19T04:52:34.606Z,2087.00
2023-04-19T04:53:34.640Z,2083.00
2023-04-19T04:54:34.686Z,2087.00
2023-04-19T04:55:34.704Z,2091.00
2023-04-19T04:56:34.889Z,2083.00
2023-04-19T04:57:34.795Z,2089.00
2023-04-19T04:58:34.820Z,2084.00
2023-04-19T04:59:34.849Z,2078.00
2023-04-19T05:00:34.896Z,2087.00
2023-04-19T05:01:42.072Z,2081.00
2023-04-19T05:02:35.021Z,2083.00
2023-04-19T05:03:34.984Z,2086.00
2023-04-19T05:04:34.970Z,2088.00
2023-04-19T05:05:34.966Z,2089.00
2023-04-19T05:06:34.989Z,2082.00
2023-04-19T05:07:34.977Z,2087.00
2023-04-19T05:08:34.942Z,2076.00
2023-04-19T05:09:35.002Z,2077.00
2023-04-19T05:10:35.008Z,2076.00
2023-04-19T05:11:35.002Z,2076.00
2023-04-19T05:12:35.019Z,2076.00
2023-04-19T05:13:34.990Z,2073.00
2023-04-19T05:14:35.101Z,2065.00
2023-04-19T05:15:35.012Z,2069.00
2023-04-19T05:16:35.052Z,2068.00
2023-04-19T05:17:35.004Z,2071.00
2023-04-19T05:18:35.004Z,2071.00
2023-04-19T05:19:35.058Z,2063.00
2023-04-19T05:20:35.045Z,2067.00
2023-04-19T05:21:35.126Z,2069.00
2023-04-19T05:22:35.006Z,2071.00
2023-04-19T05:23:35.047Z,2068.00
2023-04-19T05:24:35.064Z,2060.00
2023-04-19T05:25:35.069Z,2062.00
2023-04-19T05:26:35.082Z,2064.00
2023-04-19T05:27:35.052Z,2059.00
2023-04-19T05:28:35.140Z,2056.00
2023-04-19T05:29:35.100Z,2064.00
2023-04-19T05:30:35.097Z,2059.00
2023-04-19T05:31:35.174Z,2052.00
2023-04-19T05:32:35.098Z,2074.00
2023-04-19T05:33:35.113Z,2106.00
2023-04-19T05:34:35.146Z,2130.00
2023-04-19T05:35:35.156Z,2161.00
2023-04-19T05:36:35.140Z,2165.00
2023-04-19T05:37:35.129Z,2198.00
2023-04-19T05:38:35.207Z,2211.00
2023-04-19T05:39:35.173Z,2242.00
2023-04-19T05:40:35.188Z,2244.00
2023-04-19T05:41:35.244Z,2280.00
2023-04-19T05:42:35.341Z,2305.00
2023-04-19T05:43:35.714Z,2340.00
2023-04-19T05:44:35.459Z,2357.00
2023-04-19T05:45:42.535Z,2416.00
2023-04-19T05:46:35.571Z,2419.00
2023-04-19T05:47:35.574Z,2428.00
2023-04-19T05:48:36.158Z,2439.00
2023-04-19T05:49:35.538Z,2438.00
2023-04-19T05:50:35.543Z,2399.00
2023-04-19T05:51:35.560Z,2280.00
2023-04-19T05:52:35.602Z,2229.00
2023-04-19T05:53:35.625Z,2195.00
2023-04-19T05:54:35.610Z,2168.00
2023-04-19T05:55:35.619Z,2188.00
2023-04-19T05:56:35.646Z,2180.00
2023-04-19T05:57:35.709Z,2243.00
2023-04-19T05:58:35.694Z,2228.00
2023-04-19T05:59:35.676Z,2248.00
2023-04-19T06:00:35.680Z,2228.00
2023-04-19T06:01:35.725Z,2207.00
2023-04-19T06:02:35.843Z,2202.00
2023-04-19T06:03:35.843Z,2220.00
2023-04-19T06:04:35.928Z,2196.00
2023-04-19T06:05:35.776Z,2224.00
2023-04-19T06:06:35.793Z,2190.00
2023-04-19T06:07:40.069Z,2208.00
2023-04-19T06:08:36.847Z,2209.00
2023-04-19T06:09:35.846Z,2216.00
2023-04-19T06:10:48.954Z,2227.00
2023-04-19T06:11:47.004Z,2211.00
2023-04-19T06:12:36.886Z,2211.00
2023-04-19T06:13:35.902Z,2220.00
2023-04-19T06:14:35.972Z,2225.00
2023-04-19T06:15:36.018Z,2268.00
2023-04-19T06:16:36.027Z,2313.00
2023-04-19T06:17:36.125Z,2286.00
2023-04-19T06:18:36.048Z,2270.00
2023-04-19T06:19:36.042Z,2265.00
2023-04-19T06:20:36.055Z,2366.00
2023-04-19T06:21:36.102Z,2414.00
2023-04-19T06:22:36.132Z,2398.00
2023-04-19T06:23:36.160Z,2394.00
2023-04-19T06:24:37.111Z,2394.00
2023-04-19T06:25:36.232Z,2409.00
2023-04-19T06:26:36.257Z,2385.00
2023-04-19T06:27:36.235Z,2384.00
2023-04-19T06:28:36.271Z,2376.00
2023-04-19T06:29:36.290Z,2430.00
2023-04-19T06:30:36.328Z,2394.00
2023-04-19T06:31:36.396Z,2298.00
2023-04-19T06:32:36.394Z,2261.00
2023-04-19T06:33:36.359Z,2319.00
2023-04-19T06:34:36.351Z,2296.00
2023-04-19T06:35:36.404Z,2323.00
2023-04-19T06:36:36.433Z,2310.00
2023-04-19T06:37:36.426Z,2473.00
2023-04-19T06:38:36.755Z,2600.00
2023-04-19T06:39:36.462Z,2901.00
2023-04-19T06:40:36.539Z,3003.00
2023-04-19T06:41:36.587Z,3047.00
2023-04-19T06:42:36.558Z,2898.00
2023-04-19T06:43:36.578Z,2600.00
2023-04-19T06:44:36.596Z,2444.00
2023-04-19T06:45:36.624Z,2354.00
2023-04-19T06:46:36.669Z,2248.00
2023-04-19T06:47:36.781Z,2089.00
2023-04-19T06:48:36.709Z,1977.00
2023-04-19T06:49:36.736Z,1877.00
2023-04-19T06:50:36.787Z,1751.00
2023-04-19T06:51:36.827Z,1782.00
2023-04-19T06:52:36.853Z,1789.00
2023-04-19T06:53:36.953Z,1785.00
2023-04-19T06:54:37.184Z,1772.00
2023-04-19T06:55:37.024Z,1799.00
2023-04-19T06:56:37.072Z,1779.00
2023-04-19T06:57:37.227Z,1801.00
2023-04-19T06:58:37.750Z,1852.00
2023-04-19T06:59:37.290Z,1838.00
2023-04-19T07:00:37.408Z,1767.00
2023-04-19T07:01:37.551Z,1674.00
2023-04-19T07:02:37.605Z,1570.00
2023-04-19T07:03:37.758Z,1517.00
2023-04-19T07:04:37.861Z,1460.00
2023-04-19T07:05:37.760Z,1486.00
2023-04-19T07:06:37.978Z,1463.00
2023-04-19T07:07:38.088Z,1453.00
2023-04-19T07:08:49.240Z,1430.00
2023-04-19T07:09:39.220Z,1431.00
2023-04-19T07:10:38.033Z,1430.00
2023-04-19T07:11:38.099Z,1464.00
2023-04-19T07:12:38.163Z,1457.00
2023-04-19T07:13:38.171Z,1392.00
2023-04-19T07:14:38.211Z,1272.00
2023-04-19T07:15:38.290Z,1277.00
2023-04-19T07:16:38.328Z,1476.00
2023-04-19T07:17:38.369Z,1472.00
2023-04-19T07:18:38.987Z,1402.00
2023-04-19T07:19:38.465Z,1377.00
2023-04-19T07:20:38.513Z,1426.00
2023-04-19T07:21:38.625Z,1602.00
2023-04-19T07:22:38.672Z,1806.00
2023-04-19T07:23:38.786Z,1844.00
2023-04-19T07:24:39.213Z,1770.00
2023-04-19T07:25:38.921Z,1771.00
2023-04-19T07:26:38.980Z,1727.00
2023-04-19T07:27:39.072Z,1661.00
2023-04-19T07:28:40.099Z,1605.00
2023-04-19T07:29:39.240Z,1578.00
2023-04-19T07:30:39.300Z,1502.00
2023-04-19T07:31:39.454Z,1562.00
2023-04-19T07:32:39.545Z,1861.00
2023-04-19T07:33:39.577Z,2024.00
2023-04-19T07:34:39.677Z,2174.00
2023-04-19T07:35:39.700Z,2327.00
2023-04-19T07:36:39.718Z,2395.00
2023-04-19T07:37:39.763Z,2440.00
2023-04-19T07:38:39.829Z,2525.00
2023-04-19T07:39:39.815Z,2613.00
2023-04-19T07:40:39.882Z,2709.00
2023-04-19T07:41:39.934Z,2741.00
2023-04-19T07:42:39.981Z,2772.00
2023-04-19T07:43:41.087Z,2589.00
2023-04-19T07:44:40.043Z,2459.00
2023-04-19T07:45:40.107Z,2442.00
2023-04-19T07:46:40.144Z,2422.00
2023-04-19T07:47:40.237Z,2281.00
2023-04-19T07:48:40.292Z,2402.00
2023-04-19T07:49:40.310Z,2503.00
2023-04-19T07:50:40.324Z,2626.00
2023-04-19T07:51:40.367Z,2748.00
2023-04-19T07:52:40.424Z,2861.00
2023-04-19T07:53:40.552Z,3005.00
2023-04-19T07:54:40.575Z,3094.00
2023-04-19T07:55:40.646Z,3235.00
2023-04-19T07:56:40.690Z,3406.00
2023-04-19T07:57:40.741Z,3468.00
2023-04-19T07:58:40.834Z,3507.00
2023-04-19T07:59:40.993Z,3527.00
2023-04-19T08:00:40.937Z,3514.00
2023-04-19T08:01:41.170Z,3529.00
2023-04-19T08:02:41.303Z,3460.00
2023-04-19T08:03:41.264Z,3492.00
2023-04-19T08:04:41.379Z,3445.00
2023-04-19T08:05:41.464Z,3384.00
2023-04-19T08:06:41.341Z,3389.00
2023-04-19T08:07:41.358Z,3408.00
2023-04-19T08:08:41.474Z,3377.00
2023-04-19T08:09:41.589Z,3270.00
2023-04-19T08:10:41.580Z,3315.00
2023-04-19T08:11:41.630Z,3311.00
2023-04-19T08:12:50.342Z,3268.00
2023-04-19T08:13:51.618Z,3270.00
2023-04-19T08:14:56.212Z,3266.00
2023-04-19T08:17:06.391Z,3261.00
2023-04-19T08:17:42.999Z,3261.00
2023-04-19T08:18:41.779Z,3236.00
2023-04-19T08:19:41.774Z,3191.00
2023-04-19T08:20:41.788Z,3086.00
2023-04-19T08:21:41.943Z,3128.00
2023-04-19T08:22:41.834Z,3138.00
2023-04-19T08:23:48.274Z,3134.00
2023-04-19T08:24:42.867Z,3136.00
2023-04-19T08:25:41.857Z,3141.00
2023-04-19T08:26:41.842Z,3157.00
2023-04-19T08:27:41.911Z,3184.00
2023-04-19T08:28:41.882Z,3212.00
2023-04-19T08:29:42.231Z,3224.00
2023-04-19T08:30:41.916Z,3234.00
2023-04-19T08:31:41.981Z,3275.00
2023-04-19T08:32:42.014Z,3284.00
2023-04-19T08:33:41.996Z,3199.00
2023-04-19T08:34:42.016Z,3141.00
2023-04-19T08:35:42.006Z,3172.00
2023-04-19T08:36:51.508Z,3133.00
2023-04-19T08:37:43.245Z,3094.00
2023-04-19T08:38:46.574Z,3116.00
2023-04-19T08:39:43.245Z,3133.00
2023-04-19T08:40:42.117Z,3134.00
2023-04-19T08:41:42.187Z,3138.00
2023-04-19T08:42:42.712Z,3158.00
2023-04-19T08:43:42.180Z,3194.00
2023-04-19T08:44:49.262Z,3222.00
2023-04-19T08:45:43.184Z,3224.00
2023-04-19T08:46:42.192Z,3234.00
2023-04-19T08:47:56.315Z,3256.00
2023-04-19T08:48:43.348Z,3227.00
2023-04-19T08:49:43.359Z,3244.00
2023-04-19T08:51:42.202Z,3375.00
2023-04-19T08:52:54.291Z,3445.00
2023-04-19T08:53:44.232Z,3230.00
2023-04-19T08:54:42.464Z,3247.00
2023-04-19T08:55:50.973Z,3282.00
2023-04-19T08:56:43.474Z,3229.00
2023-04-19T08:57:42.359Z,3251.00
2023-04-19T08:59:42.414Z,3227.00
2023-04-19T09:00:42.451Z,3241.00
2023-04-19T09:01:44.549Z,3254.00
2023-04-19T09:02:42.733Z,3299.00
2023-04-19T09:03:56.074Z,3363.00
2023-04-19T09:04:43.756Z,3228.00
2023-04-19T09:05:42.810Z,3251.00
2023-04-19T09:06:42.719Z,3292.00
2023-04-19T09:07:42.523Z,3365.00
2023-04-19T09:08:42.598Z,3467.00
2023-04-19T09:09:55.660Z,3471.00
2023-04-19T09:10:43.611Z,3460.00
2023-04-19T09:11:42.579Z,3396.00
2023-04-19T09:12:42.558Z,3365.00
2023-04-19T09:13:42.565Z,3372.00
2023-04-19T09:14:47.427Z,3311.00
2023-04-19T09:15:43.672Z,3324.00
2023-04-19T09:16:42.659Z,3301.00
2023-04-19T09:17:42.620Z,3281.00
2023-04-19T09:18:56.236Z,3255.00
2023-04-19T09:19:43.599Z,3240.00
2023-04-19T09:20:42.637Z,3194.00
2023-04-19T09:21:42.735Z,3156.00
2023-04-19T09:22:42.629Z,3122.00
2023-04-19T09:23:42.668Z,3023.00
2023-04-19T09:26:42.655Z,3054.00
2023-04-19T09:27:42.676Z,3020.00
2023-04-19T09:28:42.670Z,2937.00
2023-04-19T09:29:42.678Z,2945.00
2023-04-19T09:30:58.075Z,2914.00
2023-04-19T09:31:51.418Z,2933.00
2023-04-19T09:32:43.762Z,2972.00
2023-04-19T09:33:42.731Z,2940.00
2023-04-19T09:34:42.696Z,2880.00
2023-04-19T09:35:42.709Z,2864.00
2023-04-19T09:36:42.731Z,2832.00
2023-04-19T09:38:42.745Z,2818.00
2023-04-19T09:39:42.735Z,2821.00
2023-04-19T09:40:43.294Z,2772.00
2023-04-19T09:41:43.695Z,2671.00
2023-04-19T09:44:01.494Z,2669.00
2023-04-19T09:45:17.045Z,2735.00
2023-04-19T09:45:43.752Z,2735.00
2023-04-19T09:46:42.829Z,2731.00
2023-04-19T09:47:42.767Z,2734.00
2023-04-19T09:48:42.817Z,2689.00
2023-04-19T09:49:49.116Z,2614.00
2023-04-19T09:50:54.903Z,2721.00
2023-04-19T09:51:43.774Z,2787.00
2023-04-19T09:52:42.771Z,2828.00
2023-04-19T09:53:42.780Z,2811.00
2023-04-19T09:54:42.811Z,2647.00
2023-04-19T09:55:53.310Z,2433.00
2023-04-19T09:56:43.830Z,2277.00
2023-04-19T09:57:42.810Z,2086.00
2023-04-19T09:58:50.019Z,1978.00
2023-04-19T09:59:43.848Z,2037.00
2023-04-19T10:00:49.030Z,2007.00
2023-04-19T10:01:43.885Z,2063.00
2023-04-19T10:02:43.027Z,1915.00
2023-04-19T10:03:43.135Z,1801.00
2023-04-19T10:05:43.028Z,1603.00
2023-04-19T10:07:42.946Z,1478.00
2023-04-19T10:08:42.973Z,1355.00
2023-04-19T10:09:52.117Z,1313.00
2023-04-19T10:10:45.532Z,1200.00
2023-04-19T10:11:43.088Z,1192.00
2023-04-19T10:13:43.068Z,1237.00
2023-04-19T10:14:43.040Z,1209.00
2023-04-19T10:15:51.140Z,1162.00
2023-04-19T10:16:44.155Z,1193.00
2023-04-19T10:17:43.109Z,1071.00
2023-04-19T10:18:43.083Z,889.00
2023-04-19T10:19:43.195Z,804.00
2023-04-19T10:20:43.132Z,731.00
2023-04-19T10:21:43.241Z,706.00
2023-04-19T10:22:43.136Z,643.00
2023-04-19T10:23:43.194Z,607.00
2023-04-19T10:24:44.385Z,579.00
2023-04-19T10:25:43.208Z,602.00
2023-04-19T10:26:43.275Z,554.00
2023-04-19T10:27:43.316Z,527.00
2023-04-19T10:28:43.393Z,516.00
2023-04-19T10:29:43.479Z,533.00
2023-04-19T10:30:43.643Z,535.00
2023-04-19T10:31:43.874Z,535.00
2023-04-19T10:32:43.721Z,587.00
2023-04-19T10:33:43.742Z,847.00
2023-04-19T10:34:43.857Z,951.00
2023-04-19T10:35:43.851Z,977.00
2023-04-19T10:36:43.958Z,897.00
2023-04-19T10:37:44.011Z,770.00
2023-04-19T10:38:44.074Z,681.00
2023-04-19T10:39:44.180Z,608.00
2023-04-19T10:40:44.174Z,578.00
2023-04-19T10:41:44.295Z,584.00
2023-04-19T10:42:44.432Z,603.00
2023-04-19T10:43:44.413Z,603.00
2023-04-19T10:44:44.459Z,624.00
2023-04-19T10:45:44.571Z,623.00
2023-04-19T10:46:44.648Z,610.00
2023-04-19T10:47:44.728Z,633.00
2023-04-19T10:48:44.753Z,601.00
2023-04-19T10:49:44.799Z,603.00
2023-04-19T10:50:44.939Z,638.00
2023-04-19T10:51:44.969Z,648.00
2023-04-19T10:52:45.015Z,658.00
2023-04-19T10:53:45.102Z,667.00
2023-04-19T10:54:45.240Z,620.00
2023-04-19T10:55:45.269Z,585.00
2023-04-19T10:56:45.439Z,562.00
2023-04-19T10:57:45.378Z,566.00
2023-04-19T10:58:46.711Z,589.00
2023-04-19T10:59:45.550Z,720.00
2023-04-19T11:00:45.660Z,887.00
2023-04-19T11:01:45.893Z,863.00
2023-04-19T11:02:45.920Z,864.00
2023-04-19T11:03:45.961Z,932.00
2023-04-19T11:04:45.963Z,862.00
2023-04-19T11:05:45.998Z,856.00
2023-04-19T11:06:46.057Z,769.00
2023-04-19T11:07:46.489Z,664.00
2023-04-19T11:08:46.229Z,639.00
2023-04-19T11:09:46.225Z,590.00
2023-04-19T11:10:46.301Z,543.00
2023-04-19T11:11:46.452Z,524.00
2023-04-19T11:12:46.513Z,528.00
2023-04-19T11:13:46.498Z,520.00
2023-04-19T11:14:46.633Z,514.00
2023-04-19T11:15:46.727Z,567.00
2023-04-19T11:16:47.287Z,577.00
2023-04-19T11:17:47.594Z,590.00
2023-04-19T11:18:46.891Z,607.00
2023-04-19T11:19:46.962Z,631.00
2023-04-19T11:20:47.020Z,655.00
2023-04-19T11:21:47.133Z,655.00
2023-04-19T11:22:47.259Z,627.00
2023-04-19T11:23:47.358Z,539.00
2023-04-19T11:24:47.355Z,564.00
2023-04-19T11:25:47.592Z,659.00
2023-04-19T11:26:47.553Z,1080.00
2023-04-19T11:27:47.887Z,1628.00
2023-04-19T11:28:47.646Z,1856.00
2023-04-19T11:29:47.750Z,1935.00
2023-04-19T11:30:47.835Z,1816.00
2023-04-19T11:31:47.939Z,1796.00
2023-04-19T11:32:48.476Z,1626.00
2023-04-19T11:33:48.039Z,1727.00
2023-04-19T11:34:48.125Z,2064.00
2023-04-19T11:35:48.176Z,1846.00
2023-04-19T11:36:48.240Z,1909.00
2023-04-19T11:37:48.772Z,1890.00
2023-04-19T11:38:48.371Z,1980.00
2023-04-19T11:39:48.494Z,1961.00
2023-04-19T11:40:48.526Z,1917.00
2023-04-19T11:41:48.623Z,1940.00
2023-04-19T11:42:48.642Z,1927.00
2023-04-19T11:43:48.663Z,1971.00
2023-04-19T11:44:48.692Z,2107.00
2023-04-19T11:45:48.770Z,2088.00
2023-04-19T11:46:48.786Z,2138.00
2023-04-19T11:47:48.961Z,2236.00
2023-04-19T11:48:48.957Z,2259.00
2023-04-19T11:49:49.080Z,2277.00
2023-04-19T11:50:49.115Z,2285.00
2023-04-19T11:51:49.131Z,2315.00
2023-04-19T11:52:49.281Z,2337.00
2023-04-19T11:53:49.292Z,2352.00
2023-04-19T11:54:49.358Z,2353.00
2023-04-19T11:55:49.441Z,2350.00
2023-04-19T11:56:49.454Z,2360.00
2023-04-19T11:57:49.527Z,2338.00
2023-04-19T11:58:49.590Z,2311.00
2023-04-19T11:59:49.684Z,2282.00
2023-04-19T12:00:49.793Z,2284.00
2023-04-19T12:01:49.781Z,2303.00
2023-04-19T12:02:50.051Z,2289.00
2023-04-19T12:03:50.066Z,2289.00
2023-04-19T12:04:50.096Z,2283.00
2023-04-19T12:05:50.106Z,2280.00
2023-04-19T12:06:50.103Z,2287.00
2023-04-19T12:07:50.170Z,2275.00
2023-04-19T12:08:50.227Z,2283.00
2023-04-19T12:09:50.259Z,2280.00
2023-04-19T12:10:50.397Z,2271.00
2023-04-19T12:11:50.524Z,2265.00
2023-04-19T12:12:50.494Z,2253.00
2023-04-19T12:13:50.582Z,2261.00
2023-04-19T12:14:50.599Z,2257.00
2023-04-19T12:15:50.679Z,2251.00
2023-04-19T12:16:50.776Z,2240.00
2023-04-19T12:18:50.877Z,2209.00